Time;durP1;ratioP1;P1;durP2;ratioP2;P2;SDS_P1;SDS_P2;PMS_P1;PMS_P2;Temp;Humidity;BMP_temperature;BMP_pressure;BME280_temperature;BME280_humidity;BME280_pressure;Samples;Min_cycle;Max_cycle;Signal;HPM_P1;HPM_P2
2022/12/18 00:01:09;;;;;;;30.42;16.08;;;-7.50;99.90;;;;;;475040;250;27994;-73
2022/12/18 00:03:11;;;;;;;32.85;16.55;;;-7.40;99.90;;;;;;475052;250;27451;-72
2022/12/18 00:05:12;;;;;;;37.72;18.92;;;-7.40;99.90;;;;;;474969;250;27416;-72
2022/12/18 00:07:13;;;;;;;32.05;17.10;;;-7.30;99.90;;;;;;475049;250;28540;-73
2022/12/18 00:09:15;;;;;;;30.27;16.08;;;-7.30;99.90;;;;;;475066;250;27801;-73
2022/12/18 00:11:16;;;;;;;31.70;15.10;;;-7.30;99.90;;;;;;475070;250;27495;-73
2022/12/18 00:13:17;;;;;;;29.58;15.40;;;-7.30;99.90;;;;;;474688;249;28039;-73
2022/12/18 00:15:18;;;;;;;33.42;15.93;;;-7.30;99.90;;;;;;474476;250;27573;-72
2022/12/18 00:17:20;;;;;;;33.55;15.07;;;-7.30;99.90;;;;;;474633;250;27453;-72
2022/12/18 00:19:21;;;;;;;25.30;14.98;;;-7.30;99.90;;;;;;474579;250;27796;-74
2022/12/18 00:21:22;;;;;;;28.38;15.55;;;-7.30;99.90;;;;;;474597;250;27430;-72
2022/12/18 00:23:23;;;;;;;31.02;16.08;;;-7.40;99.90;;;;;;474601;250;27551;-72
2022/12/18 00:25:25;;;;;;;26.25;15.27;;;-7.40;99.90;;;;;;474553;250;27885;-73
2022/12/18 00:27:26;;;;;;;33.08;15.75;;;-7.50;99.90;;;;;;474577;250;27947;-73
2022/12/18 00:29:27;;;;;;;31.55;15.73;;;-7.50;99.90;;;;;;474602;250;27464;-73
2022/12/18 00:31:28;;;;;;;33.13;16.05;;;-7.50;99.90;;;;;;474568;250;27633;-73
2022/12/18 00:33:30;;;;;;;28.80;16.02;;;-7.60;99.90;;;;;;474592;250;27453;-72
2022/12/18 00:35:31;;;;;;;25.62;15.10;;;-7.60;99.90;;;;;;474599;250;27547;-72
2022/12/18 00:37:32;;;;;;;32.72;16.62;;;-7.70;99.90;;;;;;474354;250;29079;-72
2022/12/18 00:39:33;;;;;;;34.30;16.67;;;-7.70;99.90;;;;;;474254;251;27994;-74
2022/12/18 00:43:54;;;;;;;34.53;17.55;;;-7.80;99.90;;;;;;474217;250;27541;-73
2022/12/18 00:45:55;;;;;;;30.83;15.63;;;-7.80;99.90;;;;;;474221;251;27426;-73
2022/12/18 00:47:57;;;;;;;34.55;16.77;;;-7.80;99.90;;;;;;474204;250;27489;-72
2022/12/18 00:49:58;;;;;;;32.40;16.30;;;-7.80;99.90;;;;;;474215;251;28559;-73
2022/12/18 00:51:59;;;;;;;31.48;16.60;;;-7.90;99.90;;;;;;474187;251;28926;-73
2022/12/18 00:54:00;;;;;;;35.70;17.10;;;-7.90;99.90;;;;;;474229;251;27441;-72
2022/12/18 00:56:02;;;;;;;37.47;16.52;;;-7.80;99.90;;;;;;474185;251;27477;-72
2022/12/18 00:58:03;;;;;;;33.90;18.00;;;-7.80;99.90;;;;;;474221;251;27409;-73
2022/12/18 01:00:04;;;;;;;31.95;15.05;;;-7.80;99.90;;;;;;474237;251;27474;-73
2022/12/18 01:02:05;;;;;;;32.58;16.40;;;-7.70;99.90;;;;;;474192;251;27416;-72
2022/12/18 01:04:07;;;;;;;33.13;16.77;;;-7.80;99.90;;;;;;474218;251;27907;-72
2022/12/18 01:06:08;;;;;;;34.05;15.68;;;-7.70;99.90;;;;;;474214;251;28051;-72
2022/12/18 01:08:09;;;;;;;31.50;15.45;;;-7.60;99.90;;;;;;474199;251;27409;-72
2022/12/18 01:10:10;;;;;;;29.42;15.30;;;-7.60;99.90;;;;;;474227;251;27456;-73
2022/12/18 01:12:12;;;;;;;25.58;14.70;;;-7.70;99.90;;;;;;474260;251;27466;-72
2022/12/18 01:14:13;;;;;;;32.90;16.02;;;-7.80;99.90;;;;;;474068;251;28542;-72
2022/12/18 01:16:14;;;;;;;27.10;15.57;;;-7.80;99.90;;;;;;474234;251;27903;-72
2022/12/18 01:18:15;;;;;;;29.05;15.13;;;-7.80;99.90;;;;;;474205;251;28022;-72
2022/12/18 01:20:17;;;;;;;26.67;14.93;;;-7.80;99.90;;;;;;474227;251;28759;-72
2022/12/18 01:22:18;;;;;;;29.75;13.55;;;-7.70;99.90;;;;;;474247;251;27413;-73
2022/12/18 01:24:19;;;;;;;23.30;12.80;;;-7.70;99.90;;;;;;474174;251;27429;-73
2022/12/18 01:26:21;;;;;;;28.35;14.10;;;-7.70;99.90;;;;;;474211;251;28580;-73
2022/12/18 01:28:22;;;;;;;29.30;14.82;;;-7.90;99.90;;;;;;474169;251;27457;-72
2022/12/18 01:30:23;;;;;;;25.27;13.95;;;-8.00;99.90;;;;;;474189;251;28007;-72
2022/12/18 01:32:24;;;;;;;27.10;14.13;;;-8.00;99.90;;;;;;475656;245;27435;-72
2022/12/18 01:34:26;;;;;;;34.00;17.48;;;-8.00;99.90;;;;;;475302;245;27569;-72
2022/12/18 01:36:27;;;;;;;26.08;14.23;;;-8.00;99.90;;;;;;464910;253;27570;-73
2022/12/18 01:38:28;;;;;;;37.00;15.13;;;-7.90;99.90;;;;;;470616;252;27515;-72
2022/12/18 01:40:29;;;;;;;33.13;16.73;;;-7.90;99.90;;;;;;470550;252;27465;-72
2022/12/18 01:42:31;;;;;;;33.58;16.70;;;-7.90;99.90;;;;;;470770;250;28010;-73
2022/12/18 01:44:32;;;;;;;31.58;16.60;;;-7.90;99.90;;;;;;474422;245;28073;-72
2022/12/18 01:46:33;;;;;;;37.28;17.67;;;-7.90;99.90;;;;;;468610;252;28639;-72
2022/12/18 01:48:34;;;;;;;27.35;14.45;;;-7.90;99.90;;;;;;470023;251;27492;-72
2022/12/18 01:50:36;;;;;;;29.08;14.90;;;-8.00;99.90;;;;;;469976;251;27547;-73
2022/12/18 01:52:40;;;;;;;26.00;13.57;;;-8.00;99.90;;;;;;469534;252;27649;-72
2022/12/18 01:54:41;;;;;;;32.65;14.87;;;-8.20;99.90;;;;;;469591;252;27897;-72
2022/12/18 01:56:42;;;;;;;21.87;13.68;;;-8.30;99.90;;;;;;469636;252;27560;-72
2022/12/18 01:58:44;;;;;;;22.23;12.85;;;-8.40;99.90;;;;;;469639;252;27641;-72
2022/12/18 02:00:45;;;;;;;25.60;12.80;;;-8.40;99.90;;;;;;469592;252;28087;-72
2022/12/18 02:02:46;;;;;;;25.30;13.70;;;-8.30;99.90;;;;;;469649;252;27544;-73
2022/12/18 02:04:47;;;;;;;31.67;15.07;;;-8.20;99.90;;;;;;469545;252;28644;-72
2022/12/18 02:06:49;;;;;;;23.33;13.20;;;-8.10;99.90;;;;;;469611;252;27594;-73
2022/12/18 02:08:50;;;;;;;24.70;13.85;;;-8.20;99.90;;;;;;469639;252;27557;-73
2022/12/18 02:10:51;;;;;;;25.92;13.65;;;-8.20;99.90;;;;;;469638;252;27565;-72
2022/12/18 02:12:52;;;;;;;29.40;13.93;;;-8.30;99.90;;;;;;470080;251;28021;-73
2022/12/18 02:14:54;;;;;;;27.77;13.45;;;-8.30;99.90;;;;;;471803;251;28168;-72
2022/12/18 02:16:55;;;;;;;29.58;13.95;;;-8.20;99.90;;;;;;484801;239;27451;-72
2022/12/18 02:18:56;;;;;;;41.20;17.37;;;-8.10;99.90;;;;;;482036;244;27471;-73
2022/12/18 02:20:57;;;;;;;34.70;17.00;;;-8.10;99.90;;;;;;486621;240;27426;-72
2022/12/18 02:22:59;;;;;;;31.15;17.75;;;-8.00;99.90;;;;;;492723;241;27520;-76
2022/12/18 02:25:00;;;;;;;31.92;17.00;;;-7.90;99.90;;;;;;495330;240;28075;-72
2022/12/18 02:27:01;;;;;;;35.28;16.27;;;-8.00;99.90;;;;;;492704;241;27928;-72
2022/12/18 02:29:02;;;;;;;39.78;17.85;;;-7.90;99.90;;;;;;495356;240;27502;-72
2022/12/18 02:31:04;;;;;;;34.78;16.67;;;-7.90;99.90;;;;;;492748;241;27537;-72
2022/12/18 02:33:05;;;;;;;38.00;18.12;;;-7.80;99.90;;;;;;495326;240;27492;-73
2022/12/18 02:35:06;;;;;;;35.35;18.10;;;-7.80;99.90;;;;;;492737;241;27572;-73
2022/12/18 02:37:07;;;;;;;33.35;17.73;;;-7.70;99.90;;;;;;495302;240;27577;-73
2022/12/18 02:39:09;;;;;;;34.13;17.73;;;-7.70;99.90;;;;;;492724;241;28004;-73
2022/12/18 02:41:10;;;;;;;32.10;16.10;;;-7.70;99.90;;;;;;495373;240;27461;-73
2022/12/18 02:43:11;;;;;;;34.05;16.30;;;-7.70;99.90;;;;;;492275;241;27615;-72
2022/12/18 02:45:12;;;;;;;30.02;14.95;;;-7.90;99.90;;;;;;489211;238;27541;-72
2022/12/18 02:47:14;;;;;;;26.80;15.10;;;-8.30;99.90;;;;;;483634;242;27447;-72
2022/12/18 02:49:15;;;;;;;33.95;14.93;;;-8.60;99.90;;;;;;483393;242;27538;-73
2022/12/18 02:51:16;;;;;;;31.17;14.73;;;-8.80;99.90;;;;;;482046;246;27929;-72
2022/12/18 02:53:18;;;;;;;28.65;14.90;;;-8.90;99.90;;;;;;481475;247;27986;-72
2022/12/18 02:55:19;;;;;;;25.88;13.85;;;-8.90;99.90;;;;;;481482;247;27401;-72
2022/12/18 02:57:20;;;;;;;28.73;12.73;;;-9.00;99.90;;;;;;481379;247;27559;-72
2022/12/18 02:59:23;;;;;;;23.17;13.55;;;-9.00;99.90;;;;;;481359;247;28657;-72
2022/12/18 03:01:23;;;;;;;26.90;13.00;;;-9.00;99.90;;;;;;481432;247;28465;-72
2022/12/18 03:03:24;;;;;;;26.25;13.30;;;-8.90;99.90;;;;;;481470;247;28035;-73
2022/12/18 03:05:25;;;;;;;20.50;12.37;;;-8.90;99.90;;;;;;481510;247;27997;-73
2022/12/18 03:07:26;;;;;;;23.27;12.25;;;-8.90;99.90;;;;;;481528;247;27366;-72
2022/12/18 03:09:28;;;;;;;21.05;11.88;;;-9.00;99.90;;;;;;481475;247;28496;-73
2022/12/18 03:13:48;;;;;;;24.30;12.63;;;-9.10;99.90;;;;;;482092;238;27512;-72
2022/12/18 03:15:50;;;;;;;23.62;11.68;;;-9.10;99.90;;;;;;490201;238;27498;-73
2022/12/18 03:17:51;;;;;;;21.70;11.75;;;-9.10;99.90;;;;;;485602;242;27829;-72
2022/12/18 03:19:52;;;;;;;21.05;12.52;;;-9.00;99.90;;;;;;485336;242;27475;-72
2022/12/18 03:21:53;;;;;;;26.48;11.98;;;-8.90;99.90;;;;;;485389;244;27543;-72
2022/12/18 03:23:55;;;;;;;23.60;11.57;;;-8.90;99.90;;;;;;485373;244;27414;-72
2022/12/18 03:25:56;;;;;;;22.37;11.60;;;-9.00;99.90;;;;;;485347;245;27564;-72
2022/12/18 03:27:57;;;;;;;22.00;11.88;;;-9.00;99.90;;;;;;485370;244;27485;-72
2022/12/18 03:30:02;;;;;;;23.48;12.40;;;-9.10;99.90;;;;;;485323;244;27868;-73
2022/12/18 03:32:00;;;;;;;23.60;12.10;;;-9.10;99.90;;;;;;485100;245;28039;-72
2022/12/18 03:34:01;;;;;;;22.48;11.52;;;-9.20;99.90;;;;;;489270;238;27533;-72
2022/12/18 03:36:02;;;;;;;24.02;12.48;;;-9.20;99.90;;;;;;481761;242;27485;-73
2022/12/18 03:38:03;;;;;;;21.52;12.43;;;-9.20;99.90;;;;;;482228;246;27500;-72
2022/12/18 03:40:05;;;;;;;21.62;10.43;;;-9.20;99.90;;;;;;481470;247;27425;-72
2022/12/18 03:42:06;;;;;;;19.33;10.45;;;-9.20;99.90;;;;;;481440;247;27891;-72
2022/12/18 03:44:07;;;;;;;16.42;9.88;;;-9.10;99.90;;;;;;481490;247;27839;-72
2022/12/18 03:46:08;;;;;;;21.15;10.73;;;-9.10;99.90;;;;;;481402;247;27420;-72
2022/12/18 03:48:10;;;;;;;22.65;11.45;;;-9.20;99.90;;;;;;481685;238;27512;-72
2022/12/18 03:50:11;;;;;;;21.02;11.23;;;-9.20;99.90;;;;;;488034;238;28540;-72
2022/12/18 03:52:12;;;;;;;21.30;11.18;;;-9.30;99.90;;;;;;486390;242;28491;-72
2022/12/18 03:54:14;;;;;;;17.60;11.10;;;-9.40;99.90;;;;;;482546;245;27493;-73
2022/12/18 03:56:15;;;;;;;22.27;11.48;;;-9.40;99.90;;;;;;480322;247;29148;-72
2022/12/18 03:58:17;;;;;;;20.05;12.30;;;-9.40;99.90;;;;;;480344;247;28678;-72
2022/12/18 04:00:17;;;;;;;20.95;12.13;;;-9.30;99.90;;;;;;480347;247;27593;-72
2022/12/18 04:02:19;;;;;;;18.50;10.75;;;-9.30;99.90;;;;;;480313;247;27584;-72
2022/12/18 04:04:20;;;;;;;27.37;11.12;;;-9.30;99.90;;;;;;480335;247;27505;-72
2022/12/18 04:06:21;;;;;;;18.67;10.43;;;-9.30;99.90;;;;;;480284;247;27544;-72
2022/12/18 04:08:22;;;;;;;19.62;10.25;;;-9.30;99.90;;;;;;480327;247;28842;-72
2022/12/18 04:10:24;;;;;;;23.25;12.35;;;-9.30;99.90;;;;;;480340;247;27916;-73
2022/12/18 04:12:25;;;;;;;20.65;12.07;;;-9.40;99.90;;;;;;480315;247;27498;-73
2022/12/18 04:14:26;;;;;;;19.92;9.77;;;-9.40;99.90;;;;;;480339;247;27478;-73
2022/12/18 04:16:28;;;;;;;21.45;11.80;;;-9.50;99.90;;;;;;480354;247;27505;-72
2022/12/18 04:18:29;;;;;;;19.95;10.63;;;-9.40;99.90;;;;;;481960;238;27521;-72
2022/12/18 04:20:30;;;;;;;22.55;11.27;;;-9.40;99.90;;;;;;486611;242;27612;-72
2022/12/18 04:22:31;;;;;;;24.52;12.98;;;-9.30;99.90;;;;;;485323;242;27963;-73
2022/12/18 04:24:32;;;;;;;28.58;13.05;;;-9.20;99.90;;;;;;485150;242;27436;-73
2022/12/18 04:26:34;;;;;;;35.55;15.48;;;-9.20;99.90;;;;;;490356;242;27502;-72
2022/12/18 04:28:35;;;;;;;23.62;12.40;;;-9.10;99.90;;;;;;490351;238;27489;-72
2022/12/18 04:30:36;;;;;;;26.25;13.25;;;-9.00;99.90;;;;;;485680;242;27462;-73
2022/12/18 04:32:37;;;;;;;28.10;12.40;;;-9.00;99.90;;;;;;482707;242;27510;-72
2022/12/18 04:34:39;;;;;;;23.30;13.75;;;-9.10;99.90;;;;;;489604;242;27921;-72
2022/12/18 04:36:40;;;;;;;23.62;12.18;;;-9.20;99.90;;;;;;490433;242;28168;-73
2022/12/18 04:38:41;;;;;;;25.80;11.98;;;-9.30;99.90;;;;;;490381;242;27595;-72
2022/12/18 04:40:42;;;;;;;27.65;12.75;;;-9.50;99.90;;;;;;490440;242;27468;-72
2022/12/18 04:42:44;;;;;;;22.50;10.93;;;-9.50;99.90;;;;;;490421;242;27597;-72
2022/12/18 04:44:45;;;;;;;25.80;11.55;;;-9.50;99.90;;;;;;490376;242;27468;-73
2022/12/18 04:46:46;;;;;;;24.98;12.32;;;-9.60;99.90;;;;;;490418;242;27975;-72
2022/12/18 04:48:48;;;;;;;25.15;13.50;;;-9.60;99.90;;;;;;490345;238;27997;-73
2022/12/18 04:50:49;;;;;;;20.55;10.85;;;-9.60;99.90;;;;;;489887;238;27449;-72
2022/12/18 04:52:50;;;;;;;22.58;11.90;;;-9.50;99.90;;;;;;485358;242;27490;-72
2022/12/18 04:54:51;;;;;;;22.08;10.80;;;-9.50;99.90;;;;;;483444;242;27443;-72
2022/12/18 04:56:53;;;;;;;18.40;11.68;;;-9.50;99.90;;;;;;490412;242;27493;-73
2022/12/18 04:58:54;;;;;;;22.58;11.43;;;-9.50;99.90;;;;;;490360;242;27488;-72
2022/12/18 05:00:55;;;;;;;18.50;10.65;;;-9.60;99.90;;;;;;490426;242;27919;-72
2022/12/18 05:02:56;;;;;;;21.73;11.23;;;-9.60;99.90;;;;;;490334;242;27485;-73
2022/12/18 05:04:58;;;;;;;23.08;10.57;;;-9.60;99.90;;;;;;490359;242;27494;-72
2022/12/18 05:06:59;;;;;;;24.08;11.50;;;-9.60;99.90;;;;;;490408;242;27597;-72
2022/12/18 05:09:00;;;;;;;21.10;11.50;;;-9.50;99.90;;;;;;490390;242;27952;-73
2022/12/18 05:11:01;;;;;;;23.58;12.40;;;-9.50;99.90;;;;;;490349;242;27561;-73
2022/12/18 05:13:03;;;;;;;19.27;10.30;;;-9.50;99.90;;;;;;490397;242;27946;-72
2022/12/18 05:15:04;;;;;;;18.48;10.15;;;-9.50;99.90;;;;;;490384;242;27922;-72
2022/12/18 05:17:05;;;;;;;19.23;10.65;;;-9.50;99.90;;;;;;490406;242;27576;-73
2022/12/18 05:19:06;;;;;;;22.90;11.02;;;-9.60;99.90;;;;;;490406;242;27620;-72
2022/12/18 05:21:08;;;;;;;21.33;11.30;;;-9.50;99.90;;;;;;487728;240;27558;-72
2022/12/18 05:23:09;;;;;;;20.23;11.02;;;-9.50;99.90;;;;;;482489;242;28609;-72
2022/12/18 05:25:10;;;;;;;17.77;10.00;;;-9.50;99.90;;;;;;487825;242;27944;-72
2022/12/18 05:27:11;;;;;;;24.10;11.20;;;-9.50;99.90;;;;;;482022;246;27974;-72
2022/12/18 05:29:13;;;;;;;20.27;10.65;;;-9.50;99.90;;;;;;481500;247;28481;-73
2022/12/18 05:31:14;;;;;;;21.50;11.35;;;-9.60;99.90;;;;;;481463;247;27462;-72
2022/12/18 05:33:15;;;;;;;21.85;11.10;;;-9.60;99.90;;;;;;481471;247;27503;-72
2022/12/18 05:35:17;;;;;;;27.35;11.40;;;-9.60;99.90;;;;;;481485;247;27381;-72
2022/12/18 05:37:18;;;;;;;22.45;10.05;;;-9.70;99.90;;;;;;481397;246;27404;-72
2022/12/18 05:39:19;;;;;;;18.00;9.85;;;-9.70;99.90;;;;;;481010;247;28087;-72
2022/12/18 05:41:20;;;;;;;18.40;10.35;;;-9.80;99.90;;;;;;481411;247;28005;-72
2022/12/18 05:43:22;;;;;;;20.02;10.75;;;-9.80;99.90;;;;;;481490;247;27512;-72
2022/12/18 05:45:23;;;;;;;20.92;11.20;;;-9.80;99.90;;;;;;481515;247;27369;-72
2022/12/18 05:47:24;;;;;;;18.73;9.98;;;-9.80;99.90;;;;;;481454;247;27509;-73
2022/12/18 05:49:25;;;;;;;25.20;11.77;;;-9.90;99.90;;;;;;481461;247;27469;-72
2022/12/18 05:51:27;;;;;;;19.80;10.27;;;-9.90;99.90;;;;;;481465;247;27850;-72
2022/12/18 05:53:28;;;;;;;27.05;12.02;;;-9.80;99.90;;;;;;481497;247;27894;-72
2022/12/18 05:55:29;;;;;;;27.15;12.43;;;-9.70;99.90;;;;;;481514;247;27417;-72
2022/12/18 05:57:30;;;;;;;19.23;11.68;;;-9.80;99.90;;;;;;481495;247;27401;-72
2022/12/18 05:59:32;;;;;;;25.60;12.82;;;-9.70;99.90;;;;;;481510;247;27388;-72
2022/12/18 06:01:33;;;;;;;27.85;13.40;;;-9.70;99.90;;;;;;481485;247;27377;-73
2022/12/18 06:03:34;;;;;;;29.12;13.18;;;-9.60;99.90;;;;;;481444;247;27428;-73
2022/12/18 06:05:36;;;;;;;25.92;13.00;;;-9.50;99.90;;;;;;481499;247;27832;-73
2022/12/18 06:07:37;;;;;;;23.02;12.40;;;-9.50;99.90;;;;;;481424;247;27488;-72
2022/12/18 06:09:38;;;;;;;25.42;12.95;;;-9.60;99.90;;;;;;481478;247;27540;-72
2022/12/18 06:11:39;;;;;;;20.25;10.80;;;-9.70;99.90;;;;;;481521;247;27364;-73
2022/12/18 06:13:40;;;;;;;23.33;11.50;;;-9.70;99.90;;;;;;481345;247;27433;-72
2022/12/18 06:15:42;;;;;;;22.58;12.23;;;-9.70;99.90;;;;;;481262;247;27564;-72
2022/12/18 06:17:43;;;;;;;24.37;12.73;;;-9.70;99.90;;;;;;481466;247;28012;-73
2022/12/18 06:19:44;;;;;;;23.10;13.15;;;-9.70;99.90;;;;;;481466;247;27958;-72
2022/12/18 06:21:45;;;;;;;19.20;10.95;;;-9.70;99.90;;;;;;481506;247;27460;-72
2022/12/18 06:23:47;;;;;;;21.05;11.15;;;-9.80;99.90;;;;;;481471;247;28501;-73
2022/12/18 06:25:48;;;;;;;20.80;11.05;;;-10.00;99.90;;;;;;481498;247;28630;-73
2022/12/18 06:27:49;;;;;;;28.73;12.25;;;-10.00;99.90;;;;;;481477;247;28494;-73
2022/12/18 06:29:51;;;;;;;29.73;13.30;;;-10.10;99.90;;;;;;481467;247;29082;-72
2022/12/18 06:31:52;;;;;;;22.00;11.55;;;-10.10;99.90;;;;;;481448;247;27471;-72
2022/12/18 06:33:53;;;;;;;23.20;11.68;;;-10.10;99.90;;;;;;481439;247;27417;-72
2022/12/18 06:35:55;;;;;;;23.50;11.55;;;-10.10;99.90;;;;;;481490;247;27445;-72
2022/12/18 06:37:56;;;;;;;22.70;12.57;;;-10.10;99.90;;;;;;481509;247;27502;-72
2022/12/18 06:39:57;;;;;;;18.95;9.68;;;-10.00;99.90;;;;;;481465;247;27968;-72
2022/12/18 06:41:58;;;;;;;19.30;10.02;;;-9.90;99.90;;;;;;481488;247;27371;-72
2022/12/18 06:44:00;;;;;;;23.67;10.75;;;-9.90;99.90;;;;;;481444;247;27404;-72
2022/12/18 06:46:01;;;;;;;18.08;10.27;;;-9.90;99.90;;;;;;481437;247;27401;-72
2022/12/18 06:48:02;;;;;;;22.92;10.75;;;-9.90;99.90;;;;;;481503;247;27433;-72
2022/12/18 06:50:04;;;;;;;20.33;10.85;;;-9.80;99.90;;;;;;481440;247;27425;-72
2022/12/18 06:52:05;;;;;;;19.48;9.65;;;-9.70;99.90;;;;;;481351;247;27841;-72
2022/12/18 06:54:06;;;;;;;20.92;10.88;;;-9.70;99.90;;;;;;481484;247;28027;-72
2022/12/18 06:56:07;;;;;;;18.00;10.45;;;-9.70;99.90;;;;;;481332;247;27457;-72
2022/12/18 06:58:09;;;;;;;20.23;11.73;;;-9.70;99.90;;;;;;481487;247;27361;-72
2022/12/18 07:00:10;;;;;;;22.08;11.30;;;-9.60;99.90;;;;;;481451;247;27405;-73
2022/12/18 07:02:11;;;;;;;19.02;9.80;;;-9.60;99.90;;;;;;481424;247;28583;-72
2022/12/18 07:04:12;;;;;;;23.77;11.80;;;-9.60;99.90;;;;;;481474;247;27401;-72
2022/12/18 07:06:13;;;;;;;23.92;10.98;;;-9.60;99.90;;;;;;481438;247;28714;-72
2022/12/18 07:08:15;;;;;;;18.37;11.25;;;-9.80;99.90;;;;;;481483;247;27486;-72
2022/12/18 07:10:16;;;;;;;22.60;11.12;;;-9.90;99.90;;;;;;481476;247;27488;-72
2022/12/18 07:12:17;;;;;;;24.58;12.50;;;-10.00;99.90;;;;;;481450;247;27373;-72
2022/12/18 07:14:19;;;;;;;24.50;10.32;;;-10.10;99.90;;;;;;481464;247;27516;-72
2022/12/18 07:16:20;;;;;;;24.25;11.60;;;-10.20;99.90;;;;;;481446;247;27473;-72
2022/12/18 07:18:21;;;;;;;22.15;9.43;;;-10.20;99.90;;;;;;481468;247;27977;-72
2022/12/18 07:20:22;;;;;;;22.45;11.10;;;-10.20;99.90;;;;;;481474;247;27400;-72
2022/12/18 07:22:24;;;;;;;22.83;11.18;;;-10.20;99.90;;;;;;481448;247;27373;-72
2022/12/18 07:24:25;;;;;;;19.10;9.90;;;-10.30;99.90;;;;;;481447;247;27465;-72
2022/12/18 07:26:26;;;;;;;24.02;11.85;;;-10.30;99.90;;;;;;481432;247;27770;-72
2022/12/18 07:28:27;;;;;;;24.42;12.77;;;-10.30;99.90;;;;;;481452;247;27919;-72
2022/12/18 07:30:29;;;;;;;24.70;11.55;;;-10.30;99.90;;;;;;483362;242;27860;-73
2022/12/18 07:32:30;;;;;;;30.15;13.90;;;-10.20;99.90;;;;;;490337;242;27451;-72
2022/12/18 07:34:31;;;;;;;21.33;11.30;;;-10.10;99.90;;;;;;490308;242;27613;-72
2022/12/18 07:36:32;;;;;;;24.77;12.25;;;-10.00;99.90;;;;;;490383;242;27884;-72
2022/12/18 07:38:34;;;;;;;22.98;12.43;;;-9.90;99.90;;;;;;490391;242;27506;-72
2022/12/18 07:40:35;;;;;;;22.62;12.20;;;-9.90;99.90;;;;;;490408;242;28052;-72
2022/12/18 07:42:36;;;;;;;22.77;11.05;;;-9.80;99.90;;;;;;490405;242;27460;-72
2022/12/18 07:44:37;;;;;;;18.37;10.63;;;-9.80;99.90;;;;;;490403;242;27502;-72
2022/12/18 07:46:39;;;;;;;27.00;12.43;;;-9.80;99.90;;;;;;490431;242;27604;-72
2022/12/18 07:48:40;;;;;;;20.65;10.73;;;-9.80;99.90;;;;;;490395;242;27471;-72
2022/12/18 07:50:41;;;;;;;21.10;11.73;;;-9.90;99.90;;;;;;490443;242;28616;-73
2022/12/18 07:52:42;;;;;;;22.83;12.63;;;-9.90;99.90;;;;;;490360;242;27928;-72
2022/12/18 07:54:44;;;;;;;24.37;11.80;;;-10.00;99.90;;;;;;490413;242;27930;-72
2022/12/18 07:56:45;;;;;;;23.55;12.40;;;-10.10;99.90;;;;;;490401;242;27585;-72
2022/12/18 07:58:48;;;;;;;25.27;10.98;;;-10.20;99.90;;;;;;490383;242;27478;-72
2022/12/18 08:00:49;;;;;;;27.17;11.55;;;-10.00;99.90;;;;;;490379;242;27536;-73
2022/12/18 08:02:50;;;;;;;19.50;11.32;;;-9.90;99.90;;;;;;489839;242;27883;-72
2022/12/18 08:04:52;;;;;;;21.55;11.45;;;-9.80;99.90;;;;;;487697;242;27530;-72
2022/12/18 08:06:53;;;;;;;26.02;12.80;;;-9.70;99.90;;;;;;487571;243;27487;-73
2022/12/18 08:08:54;;;;;;;18.70;9.63;;;-9.80;99.90;;;;;;487560;243;27460;-72
2022/12/18 08:10:56;;;;;;;23.20;11.77;;;-10.00;99.90;;;;;;487552;243;28685;-72
2022/12/18 08:12:57;;;;;;;22.23;10.77;;;-10.00;99.90;;;;;;487596;243;27878;-73
2022/12/18 08:14:58;;;;;;;18.65;10.10;;;-9.90;99.90;;;;;;487488;243;27493;-71
2022/12/18 08:16:59;;;;;;;19.85;10.13;;;-9.90;99.90;;;;;;487578;243;27508;-73
2022/12/18 08:19:01;;;;;;;18.87;10.75;;;-9.80;99.90;;;;;;487515;243;27575;-73
2022/12/18 08:21:02;;;;;;;21.15;11.15;;;-9.70;99.90;;;;;;487494;243;27478;-73
2022/12/18 08:23:03;;;;;;;22.58;10.65;;;-9.80;99.90;;;;;;487598;243;27542;-73
2022/12/18 08:25:04;;;;;;;21.15;10.65;;;-9.80;99.90;;;;;;487491;243;27885;-72
2022/12/18 08:27:06;;;;;;;17.25;10.48;;;-9.80;99.90;;;;;;487512;243;27970;-72
2022/12/18 08:29:07;;;;;;;19.80;10.88;;;-9.90;99.90;;;;;;487616;243;27434;-72
2022/12/18 08:31:08;;;;;;;24.85;11.52;;;-9.80;99.90;;;;;;487554;243;27485;-72
2022/12/18 08:33:09;;;;;;;20.80;10.90;;;-9.60;99.90;;;;;;487598;243;27497;-72
2022/12/18 08:35:11;;;;;;;23.98;12.25;;;-9.40;99.90;;;;;;487565;243;27501;-72
2022/12/18 08:37:12;;;;;;;22.73;12.48;;;-9.30;99.90;;;;;;487590;243;27973;-72
2022/12/18 08:39:13;;;;;;;23.87;13.10;;;-9.20;99.90;;;;;;487597;243;29000;-72
2022/12/18 08:41:14;;;;;;;24.40;11.57;;;-9.10;99.90;;;;;;487546;243;27478;-73
2022/12/18 08:45:36;;;;;;;25.08;13.93;;;-9.10;99.90;;;;;;487539;244;27893;-72
2022/12/18 08:47:37;;;;;;;28.00;13.77;;;-8.90;99.90;;;;;;487584;243;27554;-72
2022/12/18 08:49:38;;;;;;;22.58;13.20;;;-8.80;99.90;;;;;;487239;240;28524;-72
2022/12/18 08:51:39;;;;;;;24.70;12.85;;;-8.70;99.90;;;;;;486405;244;27352;-72
2022/12/18 08:53:41;;;;;;;23.87;11.95;;;-8.70;99.90;;;;;;486596;244;27428;-73
2022/12/18 08:55:42;;;;;;;24.08;12.00;;;-8.70;99.90;;;;;;486581;244;28357;-73
2022/12/18 08:57:43;;;;;;;23.25;12.50;;;-8.70;99.90;;;;;;486476;244;27904;-72
2022/12/18 08:59:44;;;;;;;24.52;12.85;;;-8.60;99.90;;;;;;486576;244;27413;-72
2022/12/18 09:01:46;;;;;;;27.40;13.18;;;-8.60;99.90;;;;;;486520;244;27491;-72
2022/12/18 09:03:47;;;;;;;24.23;13.62;;;-8.50;99.90;;;;;;486606;244;27620;-73
2022/12/18 09:05:48;;;;;;;22.42;12.48;;;-8.50;99.90;;;;;;486615;244;27504;-72
2022/12/18 09:07:50;;;;;;;22.30;13.25;;;-8.40;99.90;;;;;;486596;244;27901;-72
2022/12/18 09:09:51;;;;;;;24.33;12.80;;;-8.40;99.90;;;;;;486605;244;28065;-73
2022/12/18 09:11:52;;;;;;;25.35;13.32;;;-8.40;99.90;;;;;;486628;244;28442;-72
2022/12/18 09:13:53;;;;;;;21.27;11.70;;;-8.40;99.90;;;;;;489647;242;27490;-71
2022/12/18 09:15:55;;;;;;;24.90;13.70;;;-8.30;99.90;;;;;;490343;242;27508;-72
2022/12/18 09:17:56;;;;;;;26.50;14.25;;;-8.30;99.90;;;;;;490437;242;27937;-72
2022/12/18 09:19:57;;;;;;;21.20;11.75;;;-8.30;99.90;;;;;;490341;242;28031;-72
2022/12/18 09:21:58;;;;;;;22.08;12.30;;;-8.20;99.90;;;;;;489417;241;27510;-71
2022/12/18 09:24:00;;;;;;;22.45;12.50;;;-8.10;99.90;;;;;;486883;241;27424;-72
2022/12/18 09:26:01;;;;;;;20.33;11.38;;;-8.00;99.90;;;;;;486512;244;27507;-71
2022/12/18 09:28:02;;;;;;;25.02;12.32;;;-8.00;99.90;;;;;;486220;244;41721;-71
2022/12/18 09:30:04;;;;;;;22.65;12.82;;;-7.90;99.90;;;;;;486511;241;27510;-71
2022/12/18 09:32:05;;;;;;;25.08;13.25;;;-7.90;99.90;;;;;;486566;244;27479;-71
2022/12/18 09:34:06;;;;;;;24.60;11.82;;;-7.80;99.90;;;;;;486507;244;27528;-71
2022/12/18 09:36:07;;;;;;;23.67;11.80;;;-7.80;99.90;;;;;;486630;244;28697;-72
2022/12/18 09:38:09;;;;;;;23.75;13.02;;;-7.70;99.90;;;;;;486575;244;27899;-70
2022/12/18 09:40:10;;;;;;;21.25;12.65;;;-7.60;99.90;;;;;;486408;242;28693;-71
2022/12/18 09:42:14;;;;;;;24.15;12.75;;;-7.60;99.90;;;;;;485190;242;27481;-71
2022/12/18 09:44:15;;;;;;;22.73;11.65;;;-7.50;99.90;;;;;;486120;242;28889;-71
2022/12/18 09:46:16;;;;;;;21.77;12.40;;;-7.50;99.90;;;;;;486145;242;27917;-71
2022/12/18 09:48:18;;;;;;;24.60;13.13;;;-7.50;99.90;;;;;;483804;242;28491;-71
2022/12/18 09:50:19;;;;;;;21.15;11.35;;;-7.40;99.90;;;;;;485802;240;27518;-71
2022/12/18 09:52:20;;;;;;;20.88;11.57;;;-7.40;99.90;;;;;;486387;240;27503;-71
2022/12/18 09:54:21;;;;;;;21.12;13.30;;;-7.30;99.90;;;;;;486882;240;28699;-71
2022/12/18 09:56:24;;;;;;;24.27;12.23;;;-7.20;99.90;;;;;;487248;240;28036;-71
2022/12/18 09:58:24;;;;;;;20.67;11.70;;;-7.10;99.90;;;;;;488746;240;27929;-71
2022/12/18 10:00:25;;;;;;;20.98;12.15;;;-7.10;99.90;;;;;;488762;240;27477;-71
2022/12/18 10:02:27;;;;;;;23.02;12.00;;;-7.00;99.90;;;;;;487263;240;28580;-71
2022/12/18 10:04:28;;;;;;;26.85;13.32;;;-7.00;99.90;;;;;;487454;240;27896;-71
2022/12/18 10:06:29;;;;;;;26.92;13.50;;;-6.90;99.90;;;;;;487860;240;27458;-71
2022/12/18 10:08:30;;;;;;;22.25;12.18;;;-6.80;99.90;;;;;;479981;244;27554;-72
2022/12/18 10:10:32;;;;;;;26.90;12.95;;;-6.70;99.90;;;;;;479749;244;29302;-72
2022/12/18 10:12:33;;;;;;;27.65;13.93;;;-6.50;99.90;;;;;;478943;244;27625;-71
2022/12/18 10:14:35;;;;;;;28.05;14.80;;;-6.30;99.90;;;;;;479894;244;28600;-71
2022/12/18 10:16:36;;;;;;;26.90;13.48;;;-6.20;99.90;;;;;;487091;239;28283;-71
2022/12/18 10:18:38;;;;;;;27.42;13.10;;;-6.10;99.90;;;;;;487899;240;27976;-71
2022/12/18 10:20:39;;;;;;;27.58;14.20;;;-6.00;99.90;;;;;;485682;240;27517;-71